Tiempo atmosférico en la estación meteorológica de Berga, Barcelona (690 m.)



Fecha
DESCASC
Temp. máxima en grados centígrados (hora)
DESCASC
Temp. mínima en grados centígrados (hora)
DESCASC
Temp. media en grados centígrados
DESCASC
Racha de viento máxima en m/sg (hora)
DESCASC
Velocidad máxima media en intervalos de 10 minutos(hora)
DESCASC
Precipitaciones diarias en mm
DESCASC
Precipitaciones de 00:00 a 06:00 en mm
DESCASC
Precipitaciones de 06:00 a 12:00 en mm
DESCASC
Precipitaciones de 12:00 a 18:00 en mm
DESCASC
Precipitaciones de 18:00 a 24:00 en mm
DESCASC
20-09-2018 27.9 (16:50) 15 (07:20) 21.4 5.56 (14:40) 2.78 (14:30) 0 0 0 0 0
19-09-2018 26 (17:30) 14.5 (07:20) 20.3 5.83 (15:10) 2.78 (00:40) 0 0 0 0 0
18-09-2018 23.7 (13:40) 15.2 (07:30) 19.5 9.44 (16:30) 5 (16:30) 22.4 0 0 22.4 0
17-09-2018 25.5 (16:20) 15.2 (06:40) 20.3 5.83 (07:30) 3.33 (07:40) 0 0 0 0 0
16-09-2018 26.3 (16:20) 15.9 (00:00) 21.1 9.72 (23:00) 5.83 (22:50) 1.4 0 0 0 1.4
15-09-2018 23.9 (14:10) 17.7 (00:00) 20.8 6.11 (17:10) 4.17 (17:10) 0 0 0 0 0
14-09-2018 25.7 (16:50) 15.1 (00:00) 20.4 6.11 (17:20) 3.89 (16:10) 0 0 0 0 0
13-09-2018 26.3 (15:40) 14.5 (00:00) 20.4 6.11 (15:50) 3.33 (02:20) 0 0 0 0 0
12-09-2018 27 (16:10) 16.5 (00:00) 21.8 14.72 (18:50) 9.17 (18:50) 30.8 0 0 0 30.8
11-09-2018 27.1 (15:50) 15.6 (00:00) 21.4 6.39 (03:00) 3.89 (03:00) 0 0 0 0 0
10-09-2018 24.5 (16:40) 14.5 (00:00) 19.5 5.83 (03:30) 3.06 (23:50) 0 0 0 0 0
09-09-2018 25.7 (16:10) 16.5 (00:00) 21.1 6.11 (19:00) 3.61 (19:00) 7.2 0 0 0 7.2
08-09-2018 24.6 (15:50) 14.2 (00:00) 19.4 7.22 (16:40) 4.44 (16:40) 1.2 1.2 0 0 0
07-09-2018 23.8 (13:50) 12.9 (00:00) 18.3 5.28 (13:00) 2.5 (14:40) 22.4 0 0 0 22.4
06-09-2018 25.9 (15:00) 15.1 (00:00) 20.5 11.67 (02:00) 6.39 (15:40) 0 0 0 0 0
05-09-2018 27 (16:00) 15.8 (00:00) 21.4 6.39 (06:10) 3.89 (04:30) 0.4 0 0.2 0.2 0
04-09-2018 27.6 (16:20) 16.8 (00:00) 22.2 10.28 (00:50) 5 (01:10) 10 0.4 0 5.8 3.8
03-09-2018 26.9 (16:40) 17.4 (00:00) 22.1 9.17 (18:00) 5 (17:10) 1.4 0 0 0 1.4
02-09-2018 25.8 (17:30) 16.2 (00:00) 21 5.83 (13:40) 3.33 (12:30) 0.4 0.4 0 0 0
01-09-2018 24.7 (14:50) 16.8 (00:00) 20.8 6.94 (15:20) 4.17 (14:10) 0.2 0 0 0 0.2
31-08-2018 23.8 (16:30) 17.7 (00:00) 20.8 8.06 (17:30) 5.83 (15:20) 2 0.8 0 0.2 1
30-08-2018 25.9 (16:40) 15.5 (00:00) 20.7 10.28 (17:20) 6.67 (17:20) 0 0 0 0 0
29-08-2018 29.7 (15:50) 16.9 (00:00) 23.3 11.67 (00:30) 5.28 (00:50) 10.2 0 0 0 10.2
28-08-2018 30.5 (16:20) 18.8 (00:00) 24.6 9.44 (23:40) 5.83 (21:40) 0 0 0 0 0
27-08-2018 28.9 (17:00) 14.7 (00:00) 21.8 6.94 (16:50) 4.44 (16:30) 0 0 0 0 0
26-08-2018 24.4 (16:50) 13.2 (00:00) 18.8 9.72 (15:40) 6.39 (15:40) 0.8 0.8 0 0 0
25-08-2018 23.7 (15:20) 14.7 (00:00) 19.2 7.78 (21:00) 4.17 (21:10) 0 0 0 0 0
24-08-2018 27.1 (15:30) 15.2 (00:00) 21.2 5.83 (15:10) 3.33 (02:50) 8.8 0 0 0 8.8

Gráficas

Temp. máximas Temp. mínimas Temp. medias Precipitaciones Rachas de viento máximas Velocidades máximas media en intervalos de 10 minutos

Datos horarios

Fecha y hora oficial Temperatura (ºC) Velocidad del viento (km/h) Dirección del viento Racha (km/h) Dirección de racha Precipitación (mm) Presión (hPa) Tendencia (hPa) Humedad (%)
2018-09-22 23:00:00 20.4 4 Nordeste 14 Nordeste 0 -- -- 77
2018-09-22 22:00:00 21.4 8 Nordeste 16 Nordeste 0 -- -- 72
2018-09-22 21:00:00 22.2 6 Este 12 Este 0 -- -- 68
2018-09-22 20:00:00 24.2 3 Este 8 Sudoeste 0 -- -- 63
2018-09-22 19:00:00 26.5 3 Sur 9 Sudoeste 0 -- -- 54
2018-09-22 18:00:00 26.9 3 Sudeste 14 Sudoeste 0 -- -- 52
2018-09-22 17:00:00 26.9 5 Sudoeste 13 Sudoeste 0 -- -- 52
2018-09-22 16:00:00 26.9 3 Oeste 11 Sudoeste 0 -- -- 53
2018-09-22 15:00:00 25.4 6 Sudoeste 14 Oeste 0 -- -- 58
2018-09-22 14:00:00 24 5 Sudoeste 14 Sudoeste 0 -- -- 64
2018-09-22 13:00:00 23.2 8 Sudoeste 17 Sudoeste 0 -- -- 68
2018-09-22 12:00:00 21.8 6 Oeste 12 Oeste 0 -- -- 70
2018-09-22 11:00:00 20.9 7 Oeste 12 Sudoeste 0 -- -- 71
2018-09-22 10:00:00 19.1 5 Sudoeste 7 Oeste 0 -- -- 78
2018-09-22 09:00:00 17.9 4 Sudoeste 8 Sudoeste 0 -- -- 78
2018-09-22 08:00:00 18.3 3 Sur 7 Este 0 -- -- 86
2018-09-22 07:00:00 18.8 3 Sudeste 6 Sur 0 -- -- 89
2018-09-22 06:00:00 19 4 Sudoeste 6 Sudoeste 0 -- -- 88
2018-09-22 05:00:00 19.3 3 Sur 6 Sudeste 0 -- -- 84
2018-09-22 04:00:00 19.5 3 Sudoeste 6 Sudoeste 0 -- -- 89
2018-09-22 03:00:00 19.8 6 Sudoeste 8 Oeste 0 -- -- 87
2018-09-22 02:00:00 19.9 2 Este 6 Sudoeste 0 -- -- 87
2018-09-22 01:00:00 20.1 4 Sudoeste 10 Sudoeste 0 -- -- 86
2018-09-22 00:00:00 21 5 Sudoeste 9 Sudoeste 0 -- -- 82
2018-09-21 23:00:00 21.7 2 Sudoeste 6 Sur 0 -- -- 79
2018-09-21 22:00:00 22.3 4 Sudoeste 9 Oeste 0 -- -- 76
2018-09-21 21:00:00 23.1 4 Oeste 9 Sudoeste 0 -- -- 72
2018-09-21 20:00:00 24.6 4 Sudoeste 15 Oeste 0 -- -- 67
2018-09-21 19:00:00 26.5 11 Sudoeste 25 Sudoeste 0 -- -- 61
2018-09-21 18:00:00 28.1 19 Oeste 27 Oeste 0 -- -- 45
2018-09-21 17:00:00 28.9 14 Oeste 26 Sudoeste 0 -- -- 43
2018-09-21 16:00:00 29 4 Sudoeste 11 Sur 0 -- -- 46
2018-09-21 15:00:00 28.6 5 Sur 14 Sudoeste 0 -- -- 50
2018-09-21 14:00:00 27.7 4 Sur 12 Sudoeste 0 -- -- 56
2018-09-21 13:00:00 26 5 Sur 12 Oeste 0 -- -- 52
2018-09-21 12:00:00 24.9 8 Sudoeste 12 Sudoeste 0 -- -- 61
2018-09-21 11:00:00 24.1 3 Sudoeste 7 Este 0 -- -- 60
2018-09-21 10:00:00 20.6 4 Este 15 Este 0 -- -- 71
2018-09-21 09:00:00 17.6 5 Este 14 Nordeste 0 -- -- 80
2018-09-21 08:00:00 16.2 5 Este 16 Este 0 -- -- 83
2018-09-21 07:00:00 16.3 9 Este 15 Este 0 -- -- 83
2018-09-21 06:00:00 16.6 8 Este 13 Este 0 -- -- 83
2018-09-21 05:00:00 16.8 8 Este 14 Este 0 -- -- 83
2018-09-21 04:00:00 17.1 8 Este 13 Este 0 -- -- 82
2018-09-21 03:00:00 17.6 6 Nordeste 17 Este 0 -- -- 81
2018-09-21 02:00:00 18 9 Este 14 Nordeste 0 -- -- 79
2018-09-21 01:00:00 18.5 9 Este 17 Este 0 -- -- 78
2018-09-21 00:00:00 19.1 8 Nordeste 13 Nordeste 0 -- -- 76
2018-09-20 23:00:00 19.4 5 Este 10 Este 0 -- -- 76
2018-09-20 22:00:00 21.2 2 Nordeste 6 Nordeste 0 -- -- 68
2018-09-20 21:00:00 22.2 2 Sur 9 Sudoeste 0 -- -- 65
2018-09-20 20:00:00 23.8 2 Este 8 Oeste 0 -- -- 59
2018-09-20 19:00:00 25.2 5 Oeste 11 Sudoeste 0 -- -- 53
2018-09-20 18:00:00 27.4 5 Sudoeste 16 Sudoeste 0 -- -- 45
2018-09-20 17:00:00 27.7 6 Sur 17 Sudoeste 0 -- -- 43
2018-09-20 16:00:00 27.5 8 Sur 18 Sur 0 -- -- 44
2018-09-20 15:00:00 27.3 8 Sudoeste 20 Sur 0 -- -- 48
2018-09-20 14:00:00 26.8 9 Sudoeste 17 Sudoeste 0 -- -- 50
2018-09-20 13:00:00 25.7 7 Sudoeste 13 Sudoeste 0 -- -- 57
2018-09-20 12:00:00 24.8 6 Sudoeste 10 Sudoeste 0 -- -- 59
2018-09-20 11:00:00 22.2 4 Este 8 Nordeste 0 -- -- 59
2018-09-20 10:00:00 19.4 4 Este 14 Este 0 -- -- 66
2018-09-20 09:00:00 16.7 7 Este 16 Este 0 -- -- 72
2018-09-20 08:00:00 15.2 9 Este 15 Este 0 -- -- 77
2018-09-20 07:00:00 15.1 9 Este 18 Nordeste 0 -- -- 79
2018-09-20 06:00:00 15.3 8 Este 14 Nordeste 0 -- -- 80
2018-09-20 05:00:00 15.8 5 Este 12 Este 0 -- -- 81
2018-09-20 04:00:00 16.3 6 Este 12 Este 0 -- -- 81
2018-09-20 03:00:00 16.5 5 Nordeste 14 Este 0 -- -- 87
2018-09-20 02:00:00 17.1 5 Nordeste 10 Este 0 -- -- 89
2018-09-20 01:00:00 17.9 5 Este 8 Este 0 -- -- 89
2018-09-20 00:00:00 18.9 5 Este 9 Este 0 -- -- 90
2018-09-19 23:00:00 20.2 2 Este 5 Este 0 -- -- 88
2018-09-19 22:00:00 20.8 3 Sudoeste 6 Sur 0 -- -- 84
2018-09-19 21:00:00 21.2 3 Sudoeste 13 Sudoeste 0 -- -- 82
2018-09-19 20:00:00 22.9 8 Sudoeste 13 Sudoeste 0 -- -- 71
2018-09-19 19:00:00 24.2 5 Oeste 8 Sudoeste 0 -- -- 66
2018-09-19 18:00:00 25.6 4 Oeste 14 Sudoeste 0 -- -- 60
2018-09-19 17:00:00 25.7 5 Sur 16 Sudoeste 0 -- -- 58
2018-09-19 16:00:00 25.7 5 Sudeste 21 Sudoeste 0 -- -- 56
2018-09-19 15:00:00 25.8 5 Sudoeste 17 Sudoeste 0 -- -- 60
2018-09-19 14:00:00 24.9 8 Sudoeste 20 Oeste 0 -- -- 61
2018-09-19 13:00:00 23.9 6 Sur 20 Sudoeste 0 -- -- 61
2018-09-19 12:00:00 22.9 7 Oeste 12 Sudoeste 0 -- -- 70
2018-09-19 11:00:00 21 4 Este 9 Este 0 -- -- 73
2018-09-19 10:00:00 18.6 5 Este 15 Este 0 -- -- 81
2018-09-19 09:00:00 16 6 Este 15 Este 0 -- -- 88
2018-09-19 08:00:00 14.6 9 Este 15 Este 0 -- -- 92
2018-09-19 07:00:00 14.6 6 Este 13 Nordeste 0 -- -- 92
2018-09-19 06:00:00 15 9 Este 17 Este 0 -- -- 92
2018-09-19 05:00:00 15.2 6 Este 13 Este 0 -- -- 93
2018-09-19 04:00:00 15.5 7 Este 13 Este 0 -- -- 93
2018-09-19 03:00:00 15.8 7 Este 14 Nordeste 0 -- -- 92
2018-09-19 02:00:00 16.2 6 Nordeste 19 Nordeste 0 -- -- 91
2018-09-19 01:00:00 16.5 9 Nordeste 18 Este 0 -- -- 91
2018-09-19 00:00:00 16.4 6 Este 13 Este 0 -- -- 94
2018-09-18 23:00:00 17 4 Este 8 Este 0 -- -- 93
2018-09-18 22:00:00 17.7 5 Este 15 Nordeste 0 -- -- 90
2018-09-18 21:00:00 17.5 5 Nordeste 12 Nordeste 0 -- -- 92
2018-09-18 20:00:00 17.7 5 Este 15 Este 0 -- -- 90
2018-09-18 19:00:00 18 5 Este 9 Este 0 -- -- 92
2018-09-18 18:00:00 17.2 5 Este 12 Nordeste 0.6 -- -- 92
2018-09-18 17:00:00 17.3 5 Norte 34 Nordeste 21.8 -- -- 86
2018-09-18 16:00:00 22.1 14 Oeste 26 Sudoeste 0 -- -- 73
2018-09-18 15:00:00 23.2 12 Sudoeste 18 Sudoeste 0 -- -- 72
2018-09-18 14:00:00 23.5 10 Oeste 21 Sudoeste 0 -- -- 66
2018-09-18 13:00:00 22.4 10 Sudoeste 18 Nordeste 0 -- -- 71
2018-09-18 12:00:00 21 8 Oeste 23 Nordeste 0 -- -- 74
2018-09-18 11:00:00 19.7 5 Este 10 Este 0 -- -- 79
2018-09-18 10:00:00 18 5 Este 12 Este 0 -- -- 83
2018-09-18 09:00:00 17.1 5 Este 18 Nordeste 0 -- -- 86
2018-09-18 08:00:00 15.4 5 Nordeste 13 Este 0 -- -- 91
2018-09-18 07:00:00 15.3 5 Este 10 Este 0 -- -- 93
2018-09-18 06:00:00 16.1 6 Sudoeste 17 Este 0 -- -- 88
2018-09-18 05:00:00 16.1 8 Nordeste 12 Este 0 -- -- 90
2018-09-18 04:00:00 16.8 4 Nordeste 16 Este 0 -- -- 87
2018-09-18 03:00:00 16.4 4 Este 9 Este 0 -- -- 91
2018-09-18 02:00:00 17 3 Nordeste 9 Este 0 -- -- 91
2018-09-18 01:00:00 17.6 3 Sudoeste 8 Este 0 -- -- 88
2018-09-18 00:00:00 17.8 6 Este 9 Este 0 -- -- 88
2018-09-17 23:00:00 19.2 3 Sudeste 4 Sur 0 -- -- 83
2018-09-17 22:00:00 19.9 2 Nordeste 9 Sudoeste 0 -- -- 80
2018-09-17 21:00:00 20.5 6 Sudoeste 15 Sudoeste 0 -- -- 78
2018-09-17 20:00:00 22 8 Sudoeste 13 Sudoeste 0 -- -- 73
2018-09-17 19:00:00 22.8 8 Oeste 12 Oeste 0 -- -- 68
2018-09-17 18:00:00 24.8 5 Sudoeste 16 Sudoeste 0 -- -- 58
2018-09-17 17:00:00 24.8 9 Sudoeste 20 Sudoeste 0 -- -- 59
2018-09-17 16:00:00 25.1 7 Sudoeste 16 Sur 0 -- -- 59
2018-09-17 15:00:00 24.2 10 Sudoeste 16 Sudoeste 0 -- -- 61
2018-09-17 14:00:00 24.4 8 Sudoeste 15 Sudoeste 0 -- -- 71
2018-09-17 13:00:00 22.3 3 Sudoeste 8 Sudoeste 0 -- -- 73
2018-09-17 12:00:00 21.4 3 Sudeste 7 Oeste 0 -- -- 72
2018-09-17 11:00:00 20.4 3 Sudoeste 7 Sudoeste 0 -- -- 73
2018-09-17 10:00:00 19.2 5 Este 10 Este 0 -- -- 73
2018-09-17 09:00:00 17 4 Este 14 Este 0 -- -- 80
2018-09-17 08:00:00 15.9 8 Este 21 Este 0 -- -- 82
2018-09-17 07:00:00 15.2 8 Este 17 Este 0 -- -- 86
2018-09-17 06:00:00 15.5 6 Este 13 Este 0 -- -- 85
2018-09-17 05:00:00 15.7 5 Nordeste 17 Este 0 -- -- 85
2018-09-17 04:00:00 16.1 8 Este 17 Este 0 -- -- 83
2018-09-17 03:00:00 17.1 8 Nordeste 20 Este 0 -- -- 78
2018-09-17 02:00:00 16.5 8 Este 13 Este 0 -- -- 86
2018-09-17 01:00:00 16.9 6 Este 14 Este 0 -- -- 86
2018-09-17 00:00:00 17.9 5 Nordeste 34 Este 0 -- -- 85
2018-09-16 23:00:00 18.7 21 Nordeste 35 Nordeste 0 -- -- 81
2018-09-16 22:00:00 18.6 6 Este 16 Nordeste 0 -- -- 87
2018-09-16 21:00:00 18.3 5 Este 14 Oeste 0.8 -- -- 89
2018-09-16 20:00:00 19.8 8 Oeste 22 Sur 0.6 -- -- 80
2018-09-16 19:00:00 23.9 3 Norte 9 Noroeste 0 -- -- 63
2018-09-16 18:00:00 25.2 5 Sur 13 Oeste 0 -- -- 53
2018-09-16 17:00:00 26 8 Oeste 19 Oeste 0 -- -- 60
2018-09-16 16:00:00 25.9 7 Oeste 21 Sudoeste 0 -- -- 60
2018-09-16 15:00:00 25.4 8 Sudoeste 21 Sudoeste 0 -- -- 60
2018-09-16 14:00:00 24.9 7 Sudoeste 17 Oeste 0 -- -- 66
2018-09-16 13:00:00 23.3 7 Sudoeste 14 Sur 0 -- -- 71
2018-09-16 12:00:00 22.4 6 Sudoeste 13 Sudoeste 0 -- -- 73
2018-09-16 11:00:00 21 7 Sudoeste 13 Sudoeste 0 -- -- 78
2018-09-16 10:00:00 19.4 2 Sur 6 Nordeste 0 -- -- 82
2018-09-16 09:00:00 16.8 0 Calma 7 Nordeste 0 -- -- 92
2018-09-16 08:00:00 16 2 Nordeste 8 Este 0 -- -- 93
2018-09-16 07:00:00 16.3 2 Este 8 Este 0 -- -- 92
2018-09-16 06:00:00 16.4 5 Este 10 Este 0 -- -- 92
2018-09-16 05:00:00 16.5 5 Este 10 Este 0 -- -- 91
2018-09-16 04:00:00 16.6 4 Este 8 Este 0 -- -- 90
2018-09-16 03:00:00 16.9 4 Este 7 Nordeste 0 -- -- 88
2018-09-16 02:00:00 17.3 2 Este 5 Oeste 0 -- -- 87
2018-09-16 01:00:00 17.8 3 Nordeste 6 Nordeste 0 -- -- 87
2018-09-16 00:00:00 17.9 0 Calma 6 Sudoeste 0 -- -- 86
2018-09-15 23:00:00 17.9 4 Oeste 7 Sur 0 -- -- 85
2018-09-15 22:00:00 18.3 3 Oeste 6 Sudoeste 0 -- -- 83
2018-09-15 21:00:00 18.7 2 Sudoeste 6 Sur 0 -- -- 82
2018-09-15 20:00:00 18.9 3 Sudoeste 10 Sudoeste 0 -- -- 81
2018-09-15 19:00:00 19.4 8 Sudoeste 15 Sudoeste 0 -- -- 79
2018-09-15 18:00:00 20 7 Sudoeste 22 Oeste 0 -- -- 78
2018-09-15 17:00:00 21.2 14 Oeste 21 Sudoeste 0 -- -- 77
2018-09-15 16:00:00 22.5 8 Sudoeste 17 Sudoeste 0 -- -- 71
2018-09-15 15:00:00 23.2 8 Sudoeste 17 Sudoeste 0 -- -- 68
2018-09-15 14:00:00 23.5 7 Sudoeste 17 Sudoeste 0 -- -- 69
2018-09-15 13:00:00 22 9 Sudoeste 15 Sudoeste 0 -- -- 74
2018-09-15 12:00:00 21.1 7 Sur 14 Sudoeste 0 -- -- 76
2018-09-15 11:00:00 20.2 5 Sur 13 Sudoeste 0 -- -- 83
2018-09-15 10:00:00 19.5 3 Sur 7 Sudoeste 0 -- -- 85
2018-09-15 09:00:00 18.6 3 Este 6 Este 0 -- -- 88
2018-09-15 08:00:00 18 0 Calma 5 Este 0 -- -- 89
2018-09-15 07:00:00 18.1 3 Oeste 6 Sur 0 -- -- 89
2018-09-15 06:00:00 17.8 3 Nordeste 8 Nordeste 0 -- -- 90
2018-09-15 05:00:00 18.1 3 Este 6 Sudoeste 0 -- -- 88
2018-09-15 04:00:00 18.5 4 Sudoeste 6 Sudoeste 0 -- -- 86
2018-09-15 03:00:00 18.3 0 Calma 6 Este 0 -- -- 84
2018-09-15 02:00:00 17.9 4 Este 7 Este 0 -- -- 87
2018-09-15 01:00:00 18.4 2 Nordeste 5 Este 0 -- -- 85
2018-09-15 00:00:00 18.9 4 Este 8 Este 0 -- -- 83
2018-09-14 23:00:00 20 0 Calma 6 Sudoeste 0 -- -- 77
2018-09-14 22:00:00 20.3 6 Oeste 14 Oeste 0 -- -- 76
2018-09-14 21:00:00 21.3 8 Sudoeste 13 Sudoeste 0 -- -- 74
2018-09-14 20:00:00 22.7 4 Sur 10 Sudoeste 0 -- -- 65
2018-09-14 19:00:00 24.3 9 Oeste 19 Sudoeste 0 -- -- 59
2018-09-14 18:00:00 25.6 12 Sudoeste 22 Sudoeste 0 -- -- 55
2018-09-14 17:00:00 25.7 13 Sudoeste 22 Sudoeste 0 -- -- 55
2018-09-14 16:00:00 24.5 11 Sudoeste 20 Sudoeste 0 -- -- 62
2018-09-14 15:00:00 25 11 Sudoeste 19 Sudoeste 0 -- -- 61
2018-09-14 14:00:00 24.1 9 Sudoeste 17 Sudoeste 0 -- -- 69
2018-09-14 13:00:00 22.3 5 Sur 15 Sur 0 -- -- 73
2018-09-14 12:00:00 20.1 3 Noroeste 14 Sudoeste 0 -- -- 81
2018-09-14 11:00:00 18.6 3 Sur 6 Nordeste 0 -- -- 85
2018-09-14 10:00:00 17.5 4 Este 7 Este 0 -- -- 89
2018-09-14 09:00:00 16.2 4 Este 11 Este 0 -- -- 91
2018-09-14 08:00:00 15.4 2 Norte 12 Este 0 -- -- 93
2018-09-14 07:00:00 15.3 5 Este 10 Nordeste 0 -- -- 92
2018-09-14 06:00:00 15.8 4 Nordeste 10 Este 0 -- -- 90
2018-09-14 05:00:00 15.9 5 Este 12 Este 0 -- -- 90
2018-09-14 04:00:00 16.3 4 Nordeste 12 Este 0 -- -- 90
2018-09-14 03:00:00 16.7 5 Nordeste 10 Este 0 -- -- 90
2018-09-14 02:00:00 17.6 5 Este 8 Este 0 -- -- 88
2018-09-14 01:00:00 18.1 3 Este 9 Este 0 -- -- 87
2018-09-14 00:00:00 18.9 5 Este 8 Este 0 -- -- 85
2018-09-13 23:00:00 19.9 3 Nordeste 12 Nordeste 0 -- -- 82
2018-09-13 22:00:00 20.7 6 Este 10 Este 0 -- -- 80
2018-09-13 21:00:00 22 3 Este 6 Este 0 -- -- 75
2018-09-13 20:00:00 22.7 3 Este 8 Sur 0 -- -- 72
2018-09-13 19:00:00 23.7 0 Calma 5 Sudoeste 0 -- -- 65
2018-09-13 18:00:00 24.2 4 Sudoeste 10 Sudoeste 0 -- -- 64
2018-09-13 17:00:00 24.4 4 Sudoeste 14 Sudoeste 0 -- -- 63
2018-09-13 16:00:00 25.7 9 Sudoeste 22 Sudoeste 0 -- -- 59
2018-09-13 15:00:00 25.6 8 Sudoeste 18 Oeste 0 -- -- 60
2018-09-13 14:00:00 24.5 5 Sudoeste 15 Sudoeste 0 -- -- 65
2018-09-13 13:00:00 23.4 8 Sudoeste 13 Oeste 0 -- -- 71
2018-09-13 12:00:00 22 7 Sudoeste 13 Sudoeste 0 -- -- 69
2018-09-13 11:00:00 20.9 8 Sudoeste 13 Sudoeste 0 -- -- 74
2018-09-13 10:00:00 18.8 4 Este 13 Nordeste 0 -- -- 79
2018-09-13 09:00:00 15.9 5 Este 14 Este 0 -- -- 91
2018-09-13 08:00:00 14.7 2 Este 13 Sur 0 -- -- 90
2018-09-13 07:00:00 14.6 8 Este 15 Este 0 -- -- 91
2018-09-13 06:00:00 14.5 8 Este 18 Este 0 -- -- 92
2018-09-13 05:00:00 15 6 Nordeste 12 Este 0 -- -- 90
2018-09-13 04:00:00 15.1 9 Este 15 Este 0 -- -- 89
2018-09-13 03:00:00 15.2 12 Nordeste 19 Este 0 -- -- 89
2018-09-13 02:00:00 15 7 Este 16 Este 0 -- -- 91
2018-09-13 01:00:00 15.3 6 Este 12 Este 0 -- -- 91
2018-09-13 00:00:00 17.1 0 Calma 30 Nordeste 0 -- -- 80
2018-09-12 23:00:00 16.9 17 Nordeste 29 Nordeste 0.4 -- -- 81
2018-09-12 22:00:00 17 18 Nordeste 42 Este 3.8 -- -- 82
2018-09-12 21:00:00 17.1 19 Nordeste 33 Norte 2.4 -- -- 84
2018-09-12 20:00:00 17 8 Este 18 Este 3.6 -- -- 94
2018-09-12 19:00:00 16.9 19 Noroeste 53 Oeste 20.6 -- -- 91
2018-09-12 18:00:00 24.1 4 Sudoeste 14 Sudoeste 0 -- -- 64
2018-09-12 17:00:00 26.3 5 Sudoeste 17 Oeste 0 -- -- 49
2018-09-12 16:00:00 26.9 5 Sudoeste 14 Sudoeste 0 -- -- 48
2018-09-12 15:00:00 26.3 9 Oeste 15 Sudoeste 0 -- -- 49
2018-09-12 14:00:00 25.6 6 Sudoeste 15 Oeste 0 -- -- 49
2018-09-12 13:00:00 24.9 8 Oeste 15 Oeste 0 -- -- 57
2018-09-12 12:00:00 24.6 6 Sudoeste 12 Sudoeste 0 -- -- 54
2018-09-12 11:00:00 22.3 3 Noroeste 13 Sudoeste 0 -- -- 62
2018-09-12 10:00:00 21.5 5 Sudeste 23 Nordeste 0 -- -- 63
2018-09-12 09:00:00 19.3 10 Este 21 Sudeste 0 -- -- 68
2018-09-12 08:00:00 17.2 8 Nordeste 21 Este 0 -- -- 76
2018-09-12 07:00:00 16.8 9 Este 15 Este 0 -- -- 78
2018-09-12 06:00:00 16.8 7 Este 13 Este 0 -- -- 80
2018-09-12 05:00:00 16.7 7 Este 11 Este 0 -- -- 81
2018-09-12 04:00:00 17.6 3 Este 15 Este 0 -- -- 77
2018-09-12 03:00:00 18.1 10 Nordeste 18 Nordeste 0 -- -- 74
2018-09-12 02:00:00 19.1 9 Este 17 Este 0 -- -- 72
2018-09-12 01:00:00 18.3 8 Este 15 Este 0 -- -- 77
2018-09-12 00:00:00 18.9 6 Nordeste 21 Este 0 -- -- 76
2018-09-11 23:00:00 19 6 Este 10 Este 0 -- -- 79
2018-09-11 22:00:00 20.2 4 Este 12 Sudoeste 0 -- -- 75
2018-09-11 21:00:00 21.5 7 Sudoeste 13 Sudoeste 0 -- -- 70
2018-09-11 20:00:00 23.6 4 Norte 6 Norte 0 -- -- 58
2018-09-11 19:00:00 25.2 3 Noroeste 5 Oeste 0 -- -- 54
2018-09-11 18:00:00 25.6 5 Sudoeste 13 Sudoeste 0 -- -- 54
2018-09-11 17:00:00 26.4 6 Oeste 18 Sudoeste 0 -- -- 48
2018-09-11 16:00:00 26.9 7 Sudoeste 16 Sudoeste 0 -- -- 45
2018-09-11 15:00:00 26.6 7 Oeste 21 Sudoeste 0 -- -- 50
2018-09-11 14:00:00 25.7 11 Oeste 22 Oeste 0 -- -- 55
2018-09-11 13:00:00 25.2 13 Oeste 22 Sudoeste 0 -- -- 55
2018-09-11 12:00:00 24.8 6 Sudoeste 12 Sudoeste 0 -- -- 58
2018-09-11 11:00:00 23.3 5 Sudoeste 10 Sudoeste 0 -- -- 65
2018-09-11 10:00:00 20.2 5 Este 14 Nordeste 0 -- -- 68
2018-09-11 09:00:00 17.1 8 Este 13 Este 0 -- -- 76
2018-09-11 08:00:00 15.7 6 Este 16 Este 0 -- -- 78
2018-09-11 07:00:00 15.7 9 Este 15 Este 0 -- -- 79
2018-09-11 06:00:00 16.3 8 Este 15 Nordeste 0 -- -- 76
2018-09-11 05:00:00 16.7 9 Este 17 Este 0 -- -- 75
2018-09-11 04:00:00 16.3 10 Este 19 Este 0 -- -- 79
2018-09-11 03:00:00 17.2 14 Nordeste 23 Nordeste 0 -- -- 76
2018-09-11 02:00:00 16.5 8 Este 16 Nordeste 0 -- -- 83
2018-09-11 01:00:00 17.3 11 Nordeste 18 Este 0 -- -- 83
2018-09-11 00:00:00 17.7 9 Nordeste 17 Nordeste 0 -- -- 83
2018-09-10 23:00:00 18.6 7 Nordeste 11 Nordeste 0 -- -- 82
2018-09-10 22:00:00 19.5 3 Nordeste 6 Este 0 -- -- 80
2018-09-10 21:00:00 20.3 4 Este 8 Nordeste 0 -- -- 77
2018-09-10 20:00:00 22.4 3 Noroeste 7 Sudoeste 0 -- -- 68
2018-09-10 19:00:00 23.9 3 Este 9 Oeste 0 -- -- 60
2018-09-10 18:00:00 23.7 3 Noroeste 10 Sudoeste 0 -- -- 61
2018-09-10 17:00:00 24 6 Sudoeste 12 Oeste 0 -- -- 57
2018-09-10 16:00:00 24 5 Sudeste 12 Sur 0 -- -- 61
2018-09-10 15:00:00 22.5 5 Oeste 9 Oeste 0 -- -- 73
2018-09-10 14:00:00 22.2 3 Oeste 10 Oeste 0 -- -- 75
2018-09-10 13:00:00 21.5 5 Sudoeste 10 Sudoeste 0 -- -- 74
2018-09-10 12:00:00 21 5 Este 10 Este 0 -- -- 69
2018-09-10 11:00:00 18 6 Este 14 Este 0 -- -- 82
2018-09-10 10:00:00 17 6 Este 15 Este 0 -- -- 85
2018-09-10 09:00:00 15.4 8 Este 14 Sudeste 0 -- -- 90
2018-09-10 08:00:00 14.5 8 Este 14 Este 0 -- -- 93
2018-09-10 07:00:00 14.8 8 Este 13 Este 0 -- -- 91
2018-09-10 06:00:00 15.1 5 Nordeste 14 Este 0 -- -- 91
2018-09-10 05:00:00 16 6 Este 15 Este 0 -- -- 87
2018-09-10 04:00:00 16.4 9 Este 21 Este 0 -- -- 87
2018-09-10 03:00:00 16.1 8 Este 16 Nordeste 0 -- -- 92
2018-09-10 02:00:00 16.6 7 Este 19 Este 0 -- -- 91
2018-09-10 01:00:00 16.6 7 Nordeste 12 Nordeste 0 -- -- 93
2018-09-10 00:00:00 17 8 Nordeste 12 Nordeste 0 -- -- 93
2018-09-09 23:00:00 17 7 Este 17 Este 1 -- -- 94
2018-09-09 22:00:00 17.8 5 Nordeste 19 Nordeste 6.2 -- -- 90
2018-09-09 21:00:00 19.2 7 Este 19 Sudoeste 0 -- -- 77
2018-09-09 20:00:00 21.1 11 Oeste 20 Sudoeste 0 -- -- 81
2018-09-09 19:00:00 21.9 13 Oeste 22 Sudoeste 0 -- -- 76
2018-09-09 18:00:00 24 4 Sudoeste 8 Oeste 0 -- -- 62
2018-09-09 17:00:00 25 4 Oeste 15 Sudoeste 0 -- -- 49
2018-09-09 16:00:00 25.6 7 Sudoeste 14 Sur 0 -- -- 49
2018-09-09 15:00:00 24.9 6 Sudoeste 15 Sudoeste 0 -- -- 60
2018-09-09 14:00:00 24.6 6 Sudoeste 16 Oeste 0 -- -- 67
2018-09-09 13:00:00 22.9 7 Sudoeste 15 Sudoeste 0 -- -- 71
2018-09-09 12:00:00 21.8 5 Sudoeste 14 Sudoeste 0 -- -- 80
2018-09-09 11:00:00 20.2 5 Sudeste 10 Sudeste 0 -- -- 79
2018-09-09 10:00:00 18.1 3 Nordeste 8 Este 0 -- -- 88
2018-09-09 09:00:00 17.4 5 Sur 8 Sur 0 -- -- 88
2018-09-09 08:00:00 16.8 6 Nordeste 10 Nordeste 0 -- -- 89
2018-09-09 07:00:00 16.6 5 Este 8 Este 0 -- -- 91
2018-09-09 06:00:00 17 5 Sudoeste 9 Sudeste 0 -- -- 90
2018-09-09 05:00:00 17.6 4 Nordeste 9 Este 0 -- -- 87
2018-09-09 04:00:00 17.7 4 Este 8 Este 0 -- -- 91
2018-09-09 03:00:00 17.8 0 Calma 7 Este 0 -- -- 91
2018-09-09 02:00:00 17.7 3 Este 6 Este 0 -- -- 91
2018-09-09 01:00:00 17.7 3 Nordeste 7 Este 0 -- -- 92
2018-09-09 00:00:00 18.5 0 Calma 6 Noroeste 0 -- -- 87
2018-09-08 23:00:00 19.1 4 Este 8 Este 0 -- -- 88
2018-09-08 22:00:00 19.9 7 Sudoeste 14 Sudoeste 0 -- -- 87
2018-09-08 21:00:00 20.8 3 Este 5 Este 0 -- -- 82
2018-09-08 20:00:00 21.2 2 Sudoeste 13 Sur 0 -- -- 81
2018-09-08 19:00:00 21.9 8 Sudoeste 15 Sudoeste 0 -- -- 77
2018-09-08 18:00:00 21.9 8 Sudoeste 15 Sudoeste 0 -- -- 78
2018-09-08 17:00:00 22.2 12 Sudoeste 26 Oeste 0 -- -- 76
2018-09-08 16:00:00 24.4 9 Sudoeste 18 Sur 0 -- -- 62
2018-09-08 15:00:00 24.2 9 Sudoeste 18 Sur 0 -- -- 59
2018-09-08 14:00:00 23.9 10 Sudoeste 18 Sudoeste 0 -- -- 68
2018-09-08 13:00:00 22.4 8 Sudoeste 15 Sudoeste 0 -- -- 72
2018-09-08 12:00:00 20.4 5 Sudoeste 11 Oeste 0 -- -- 79
2018-09-08 11:00:00 19.5 0 Calma 7 Este 0 -- -- 82
2018-09-08 10:00:00 16.7 4 Nordeste 10 Este 0 -- -- 91
2018-09-08 09:00:00 15 5 Este 12 Este 0 -- -- 94
2018-09-08 08:00:00 14.2 6 Este 13 Este 0 -- -- 94
2018-09-08 07:00:00 14.4 6 Este 13 Nordeste 0 -- -- 94
2018-09-08 06:00:00 14.8 6 Este 10 Nordeste 0 -- -- 94
2018-09-08 05:00:00 15.3 6 Este 10 Nordeste 0 -- -- 95
2018-09-08 04:00:00 15.6 5 Este 9 Este 0 -- -- 94
2018-09-08 03:00:00 16.3 2 Nordeste 12 Este 0 -- -- 93
2018-09-08 02:00:00 16.8 7 Este 13 Nordeste 0 -- -- 94
2018-09-08 01:00:00 17.2 5 Este 12 Este 1.2 -- -- 94
2018-09-08 00:00:00 17.3 3 Este 6 Este 1.2 -- -- 93
2018-09-07 23:00:00 17.2 2 Nordeste 9 Este 8 -- -- 91
2018-09-07 22:00:00 18 4 Nordeste 13 Sudeste 13.2 -- -- 87
2018-09-07 21:00:00 19.6 4 Sudoeste 9 Oeste 0 -- -- 79
2018-09-07 20:00:00 20.5 4 Oeste 15 Sudoeste 0 -- -- 71
2018-09-07 19:00:00 22 4 Este 6 Sudeste 0 -- -- 65
2018-09-07 18:00:00 22.1 4 Nordeste 10 Este 0 -- -- 63
2018-09-07 17:00:00 23 4 Nordeste 9 Nordeste 0 -- -- 60
2018-09-07 16:00:00 23 2 Norte 11 Sudoeste 0 -- -- 55
2018-09-07 15:00:00 22.9 6 Sudoeste 17 Sudoeste 0 -- -- 59
2018-09-07 14:00:00 23.6 8 Sudoeste 18 Sudoeste 0 -- -- 57
2018-09-07 13:00:00 23 8 Oeste 19 Sudoeste 0 -- -- 62
2018-09-07 12:00:00 22.4 8 Sudoeste 14 Sudoeste 0 -- -- 62
2018-09-07 11:00:00 20.6 4 Sudoeste 12 Oeste 0 -- -- 64
2018-09-07 10:00:00 18.6 4 Sudoeste 11 Este 0 -- -- 71
2018-09-07 09:00:00 15.4 4 Este 10 Este 0 -- -- 78
2018-09-07 08:00:00 14.2 5 Este 11 Este 0 -- -- 82
2018-09-07 07:00:00 13.9 5 Este 12 Nordeste 0 -- -- 84
2018-09-07 06:00:00 13.4 6 Este 12 Este 0 -- -- 88
2018-09-07 05:00:00 13.5 6 Este 13 Este 0 -- -- 86
2018-09-07 04:00:00 13.8 7 Este 13 Este 0 -- -- 85
2018-09-07 03:00:00 13.9 5 Este 10 Este 0 -- -- 86
2018-09-07 02:00:00 14.5 5 Este 10 Este 0 -- -- 85
2018-09-07 01:00:00 15.8 6 Nordeste 18 Nordeste 0 -- -- 78
2018-09-07 00:00:00 15.7 6 Este 12 Este 0 -- -- 83
2018-09-06 23:00:00 16.7 4 Nordeste 11 Este 0 -- -- 78
2018-09-06 22:00:00 17.4 3 Nordeste 9 Este 0 -- -- 74
2018-09-06 21:00:00 18.7 3 Nordeste 13 Nordeste 0 -- -- 68
2018-09-06 20:00:00 20.2 5 Este 21 Este 0 -- -- 64
2018-09-06 19:00:00 23.7 11 Sudoeste 27 Noroeste 0 -- -- 61
2018-09-06 18:00:00 23.6 19 Oeste 32 Sudoeste 0 -- -- 56
2018-09-06 17:00:00 25.2 19 Sudoeste 32 Oeste 0 -- -- 54
2018-09-06 16:00:00 25.5 21 Sudoeste 37 Sudoeste 0 -- -- 51
2018-09-06 15:00:00 25.9 18 Sudoeste 31 Sudoeste 0 -- -- 50
2018-09-06 14:00:00 24.9 17 Sudoeste 25 Sudoeste 0 -- -- 53
2018-09-06 13:00:00 24.1 5 Sudoeste 15 Sur 0 -- -- 61
2018-09-06 12:00:00 23 6 Sudoeste 15 Sudoeste 0 -- -- 62
2018-09-06 11:00:00 21.9 4 Sudoeste 9 Sudoeste 0 -- -- 66
2018-09-06 10:00:00 19.8 4 Este 12 Nordeste 0 -- -- 68
2018-09-06 09:00:00 17.9 8 Este 14 Este 0 -- -- 73
2018-09-06 08:00:00 15.5 5 Este 13 Este 0 -- -- 82
2018-09-06 07:00:00 15.3 7 Este 18 Nordeste 0 -- -- 83
2018-09-06 06:00:00 15.9 4 Nordeste 13 Este 0 -- -- 80
2018-09-06 05:00:00 16.9 6 Nordeste 21 Este 0 -- -- 76
2018-09-06 04:00:00 17.3 7 Este 18 Este 0 -- -- 74
2018-09-06 03:00:00 17.2 8 Este 35 Nordeste 0 -- -- 72
2018-09-06 02:00:00 17.9 21 Nordeste 42 Nordeste 0 -- -- 70
2018-09-06 01:00:00 18.7 2 Sudeste 10 Sudoeste 0 -- -- 87
2018-09-06 00:00:00 19 5 Este 12 Este 0 -- -- 85
2018-09-05 23:00:00 19.6 5 Este 8 Este 0 -- -- 83
2018-09-05 22:00:00 20.3 5 Sudoeste 14 Oeste 0 -- -- 81
2018-09-05 21:00:00 21 3 Sudoeste 6 Sur 0 -- -- 77
2018-09-05 20:00:00 21.7 2 Oeste 10 Sur 0 -- -- 75
2018-09-05 19:00:00 22.3 6 Sudoeste 21 Oeste 0 -- -- 71
2018-09-05 18:00:00 22.3 10 Oeste 18 Sudoeste 0.2 -- -- 77
2018-09-05 17:00:00 25.1 7 Sudoeste 17 Sudoeste 0 -- -- 59
2018-09-05 16:00:00 27 9 Sudoeste 22 Sudoeste 0 -- -- 52
2018-09-05 15:00:00 26.8 7 Sudoeste 18 Sudoeste 0 -- -- 50
2018-09-05 14:00:00 25.8 5 Noroeste 17 Sudoeste 0 -- -- 54
2018-09-05 13:00:00 25.2 8 Sudoeste 18 Sudoeste 0 -- -- 59
2018-09-05 12:00:00 24.8 7 Sudoeste 13 Sudoeste 0 -- -- 58
2018-09-05 11:00:00 23.4 3 Sudoeste 8 Nordeste 0 -- -- 67
2018-09-05 10:00:00 20.1 5 Este 13 Este 0.2 -- -- 75
2018-09-05 09:00:00 17.2 7 Este 15 Este 0 -- -- 82
2018-09-05 08:00:00 15.8 9 Este 17 Este 0 -- -- 85
2018-09-05 07:00:00 16.6 8 Nordeste 23 Este 0 -- -- 79
2018-09-05 06:00:00 16.3 14 Nordeste 23 Nordeste 0 -- -- 81
2018-09-05 05:00:00 16.5 9 Este 22 Nordeste 0 -- -- 82
2018-09-05 04:00:00 16.5 9 Nordeste 18 Este 0 -- -- 82
2018-09-05 03:00:00 16.5 9 Nordeste 15 Nordeste 0 -- -- 85
2018-09-05 02:00:00 16.2 8 Este 16 Este 0 -- -- 88
2018-09-05 01:00:00 16.7 7 Nordeste 20 Este 0 -- -- 87
2018-09-05 00:00:00 17 6 Este 16 Nordeste 0 -- -- 87
2018-09-04 23:00:00 17.4 9 Nordeste 19 Este 0 -- -- 87
2018-09-04 22:00:00 18.3 6 Este 21 Este 0 -- -- 81
2018-09-04 21:00:00 18.3 10 Nordeste 26 Nordeste 0 -- -- 82
2018-09-04 20:00:00 17.8 11 Nordeste 23 Nordeste 3.2 -- -- 88
2018-09-04 19:00:00 20.1 12 Nordeste 28 Este 0.6 -- -- 78
2018-09-04 18:00:00 21.6 11 Noroeste 26 Noroeste 5.8 -- -- 84
2018-09-04 17:00:00 26.7 14 Sudoeste 26 Sudoeste 0 -- -- 54
2018-09-04 16:00:00 27 8 Sudoeste 21 Sudoeste 0 -- -- 51
2018-09-04 15:00:00 26.9 11 Sudoeste 19 Sudoeste 0 -- -- 56
2018-09-04 14:00:00 26.1 9 Sudoeste 19 Sudoeste 0 -- -- 60
2018-09-04 13:00:00 25.4 6 Sudoeste 16 Sudoeste 0 -- -- 61
2018-09-04 12:00:00 23.7 8 Oeste 15 Sudoeste 0 -- -- 69
2018-09-04 11:00:00 23.5 4 Sur 12 Este 0 -- -- 67
2018-09-04 10:00:00 21.2 7 Sudeste 15 Este 0 -- -- 68
2018-09-04 09:00:00 18.4 5 Este 14 Este 0 -- -- 80
2018-09-04 08:00:00 16.9 9 Este 16 Nordeste 0 -- -- 84
2018-09-04 07:00:00 16.9 9 Este 14 Este 0 -- -- 86
2018-09-04 06:00:00 17.2 4 Nordeste 13 Nordeste 0.2 -- -- 82
2018-09-04 05:00:00 17.5 6 Nordeste 17 Este 0 -- -- 81
2018-09-04 04:00:00 17 6 Este 12 Este 0 -- -- 87
2018-09-04 03:00:00 17.3 6 Este 13 Este 0.2 -- -- 84
2018-09-04 02:00:00 18.4 7 Este 31 Este 0 -- -- 74
2018-09-04 01:00:00 18.4 16 Nordeste 37 Nordeste 0 -- -- 75
2018-09-04 00:00:00 18.2 7 Este 12 Este 0.6 -- -- 90
2018-09-03 23:00:00 19 5 Este 13 Este 0 -- -- 81
2018-09-03 22:00:00 19.3 5 Nordeste 14 Este 0 -- -- 79
2018-09-03 21:00:00 19.7 6 Este 14 Nordeste 0.2 -- -- 79
2018-09-03 20:00:00 21.4 4 Este 27 Sudeste 0.6 -- -- 73
2018-09-03 19:00:00 22.7 15 Sudoeste 33 Sudoeste 0 -- -- 81
2018-09-03 18:00:00 25.1 16 Sudoeste 33 Sudoeste 0 -- -- 71
2018-09-03 17:00:00 26.3 15 Sudoeste 24 Sudoeste 0 -- -- 66
2018-09-03 16:00:00 26.6 14 Sudoeste 23 Sudoeste 0 -- -- 65
2018-09-03 15:00:00 25.6 9 Sudoeste 26 Sudoeste 0 -- -- 66
2018-09-03 14:00:00 25.5 12 Sudoeste 25 Sudoeste 0 -- -- 67
2018-09-03 13:00:00 24.3 8 Sudoeste 17 Sudoeste 0 -- -- 71
2018-09-03 12:00:00 22.8 4 Sur 10 Sur 0 -- -- 78
2018-09-03 11:00:00 22 6 Oeste 13 Sudoeste 0 -- -- 77
2018-09-03 10:00:00 20.7 6 Oeste 11 Este 0 -- -- 80
2018-09-03 09:00:00 18.6 6 Este 12 Este 0 -- -- 84
2018-09-03 08:00:00 17.5 4 Este 9 Nordeste 0 -- -- 90
2018-09-03 07:00:00 17.6 3 Este 6 Nordeste 0 -- -- 89
2018-09-03 06:00:00 18.4 3 Este 5 Este 0 -- -- 87
2018-09-03 05:00:00 19 3 Este 5 Nordeste 0 -- -- 86
2018-09-03 04:00:00 19.2 3 Este 5 Este 0 -- -- 84
2018-09-03 03:00:00 19.5 0 Calma 6 Este 0 -- -- 83
2018-09-03 02:00:00 19.7 2 Oeste 6 Este 0 -- -- 84
2018-09-03 01:00:00 19.7 2 Sudoeste 7 Oeste 0 -- -- 83
2018-09-03 00:00:00 20 3 Oeste 9 Sur 0 -- -- 86
2018-09-02 23:00:00 20.5 5 Sudeste 10 Este 0 -- -- 79
2018-09-02 22:00:00 20.8 5 Oeste 13 Sur 0 -- -- 82
2018-09-02 21:00:00 22 5 Sudoeste 13 Sudoeste 0 -- -- 76
2018-09-02 20:00:00 23 7 Sudoeste 18 Sudoeste 0 -- -- 70
2018-09-02 19:00:00 24.5 3 Oeste 13 Oeste 0 -- -- 62
2018-09-02 18:00:00 25.5 8 Sudoeste 18 Sudoeste 0 -- -- 57
2018-09-02 17:00:00 25.6 6 Sudoeste 17 Sudoeste 0 -- -- 56
2018-09-02 16:00:00 25.3 7 Sur 15 Sudoeste 0 -- -- 54
2018-09-02 15:00:00 24.4 9 Sur 19 Oeste 0 -- -- 59
2018-09-02 14:00:00 23 5 Sudoeste 21 Sudoeste 0 -- -- 64
2018-09-02 13:00:00 22.4 10 Sudoeste 21 Sudoeste 0 -- -- 64
2018-09-02 12:00:00 21.4 9 Sudoeste 17 Sudoeste 0 -- -- 72
2018-09-02 11:00:00 18.1 6 Sudoeste 12 Sur 0 -- -- 87
2018-09-02 10:00:00 18.3 6 Oeste 8 Oeste 0 -- -- 89
2018-09-02 09:00:00 17.3 4 Sudoeste 6 Sudoeste 0 -- -- 92
2018-09-02 08:00:00 16.3 3 Este 8 Este 0 -- -- 93
2018-09-02 07:00:00 16.4 4 Este 8 Este 0 -- -- 91
2018-09-02 06:00:00 16.7 3 Este 7 Este 0 -- -- 90
2018-09-02 05:00:00 17.2 3 Este 8 Sudeste 0.4 -- -- 90
2018-09-02 04:00:00 17.8 2 Nordeste 9 Este 0 -- -- 93
2018-09-02 03:00:00 18 2 Nordeste 7 Sur 0 -- -- 92
2018-09-02 02:00:00 18.1 3 Sudoeste 9 Sudoeste 0 -- -- 92
2018-09-02 01:00:00 18.3 3 Este 6 Este 0 -- -- 89
2018-09-02 00:00:00 18.4 2 Este 6 Este 0 -- -- 89
2018-09-01 23:00:00 18.9 4 Sur 6 Oeste 0 -- -- 87
2018-09-01 22:00:00 19.1 3 Sudeste 7 Este 0 -- -- 85
2018-09-01 21:00:00 19.5 4 Este 6 Este 0.2 -- -- 80
2018-09-01 20:00:00 20.3 4 Oeste 9 Oeste 0 -- -- 84
2018-09-01 19:00:00 21.2 3 Oeste 12 Sudoeste 0 -- -- 79
2018-09-01 18:00:00 22 4 Sur 13 Sudoeste 0 -- -- 75
2018-09-01 17:00:00 22.7 7 Sudeste 17 Sudeste 0 -- -- 72
2018-09-01 16:00:00 22.6 4 Este 25 Sudoeste 0 -- -- 72
2018-09-01 15:00:00 24.2 12 Sudoeste 25 Sudoeste 0 -- -- 66
2018-09-01 14:00:00 24.1 14 Sudoeste 22 Sudoeste 0 -- -- 62
2018-09-01 13:00:00 22.1 3 Noroeste 16 Sudoeste 0 -- -- 74
2018-09-01 12:00:00 20.8 5 Sudoeste 13 Sur 0 -- -- 83
2018-09-01 11:00:00 19.3 2 Nordeste 7 Nordeste 0 -- -- 83
2018-09-01 10:00:00 18 5 Este 9 Este 0 -- -- 85
2018-09-01 09:00:00 17.3 4 Este 8 Este 0 -- -- 89
2018-09-01 08:00:00 16.9 4 Este 7 Este 0 -- -- 89
2018-09-01 07:00:00 17 3 Este 6 Este 0 -- -- 89
2018-09-01 06:00:00 17 3 Este 7 Este 0 -- -- 92
2018-09-01 05:00:00 17.1 3 Este 6 Este 0 -- -- 92
2018-09-01 04:00:00 17.3 2 Sudoeste 5 Nordeste 0 -- -- 91
2018-09-01 03:00:00 17.7 2 Nordeste 8 Sudeste 0 -- -- 90
2018-09-01 02:00:00 17.8 2 Oeste 5 Sudoeste 0 -- -- 88
2018-09-01 01:00:00 18 3 Sudoeste 5 Sudoeste 0 -- -- 89
2018-09-01 00:00:00 17.8 3 Este 6 Este 0 -- -- 89
2018-08-31 23:00:00 18 3 Este 7 Sur 0 -- -- 89
2018-08-31 22:00:00 18.4 3 Oeste 5 Este 0 -- -- 87
2018-08-31 21:00:00 18.8 3 Nordeste 14 Sur 1 -- -- 83
2018-08-31 20:00:00 20.5 9 Sudoeste 16 Sudoeste 0 -- -- 84
2018-08-31 19:00:00 21.4 9 Sudoeste 28 Sudoeste 0 -- -- 80
2018-08-31 18:00:00 22.5 11 Sudoeste 29 Sudoeste 0 -- -- 77
2018-08-31 17:00:00 23.2 11 Sudoeste 24 Sudoeste 0 -- -- 73
2018-08-31 16:00:00 23.2 11 Sudoeste 28 Oeste 0 -- -- 75
2018-08-31 15:00:00 23 14 Sudoeste 27 Oeste 0.2 -- -- 75
2018-08-31 14:00:00 21.4 13 Sudoeste 21 Oeste 0 -- -- 86
2018-08-31 13:00:00 19.6 12 Sudoeste 23 Sudoeste 0 -- -- 91
2018-08-31 12:00:00 18.8 9 Sudoeste 14 Sudoeste 0 -- -- 92
2018-08-31 11:00:00 18.3 7 Sudoeste 12 Oeste 0 -- -- 92
2018-08-31 10:00:00 18.4 5 Oeste 8 Sudoeste 0 -- -- 93
2018-08-31 09:00:00 18 4 Sudoeste 12 Sudoeste 0 -- -- 94
2018-08-31 08:00:00 18.1 2 Sur 7 Este 0 -- -- 95
2018-08-31 07:00:00 18.2 0 Calma 8 Sudoeste 0 -- -- 93
2018-08-31 06:00:00 18.5 3 Este 5 Nordeste 0 -- -- 93
2018-08-31 05:00:00 18.8 0 Calma 7 Sudoeste 0.8 -- -- 93
2018-08-31 04:00:00 19.1 3 Oeste 5 Oeste 0 -- -- 92
2018-08-31 03:00:00 19.3 3 Sudoeste 9 Sudoeste 0 -- -- 92
2018-08-31 02:00:00 19.5 4 Noroeste 10 Sudoeste 0 -- -- 92
2018-08-31 01:00:00 20.2 3 Sur 12 Sur 0 -- -- 90
2018-08-31 00:00:00 20.5 7 Sudoeste 12 Sudoeste 0 -- -- 89
2018-08-30 23:00:00 20.8 6 Sudoeste 15 Oeste 0 -- -- 87
2018-08-30 22:00:00 21.6 6 Sudoeste 14 Sudoeste 0 -- -- 82
2018-08-30 21:00:00 22.3 3 Sudoeste 10 Sudoeste 0 -- -- 77
2018-08-30 20:00:00 23.3 9 Sudoeste 22 Oeste 0 -- -- 73
2018-08-30 19:00:00 25.4 15 Oeste 28 Oeste 0 -- -- 54
2018-08-30 18:00:00 24.9 24 Oeste 37 Oeste 0 -- -- 56
2018-08-30 17:00:00 25.7 20 Sudoeste 34 Sudoeste 0 -- -- 59
2018-08-30 16:00:00 25.5 18 Sudoeste 33 Sudoeste 0 -- -- 61
2018-08-30 15:00:00 25.1 21 Sudoeste 33 Sudoeste 0 -- -- 63
2018-08-30 14:00:00 25 17 Sudoeste 33 Oeste 0 -- -- 64
2018-08-30 13:00:00 23.7 10 Sudoeste 23 Sudoeste 0 -- -- 69
2018-08-30 12:00:00 22.7 9 Sudoeste 14 Oeste 0 -- -- 72
2018-08-30 11:00:00 20.5 4 Este 8 Este 0 -- -- 72
2018-08-30 10:00:00 19.6 6 Sudoeste 10 Nordeste 0 -- -- 80
2018-08-30 09:00:00 17.1 9 Este 19 Este 0 -- -- 83
2018-08-30 08:00:00 15.6 6 Este 13 Este 0 -- -- 88
2018-08-30 07:00:00 15.8 6 Este 15 Este 0 -- -- 88
2018-08-30 06:00:00 15.5 6 Este 14 Este 0 -- -- 90
2018-08-30 05:00:00 16.2 6 Este 12 Este 0 -- -- 90
2018-08-30 04:00:00 16.1 5 Este 13 Este 0 -- -- 90
2018-08-30 03:00:00 16.3 3 Nordeste 7 Sudoeste 0 -- -- 92
2018-08-30 02:00:00 16.9 4 Sudeste 9 Este 0 -- -- 87
2018-08-30 01:00:00 17.7 5 Sudoeste 11 Sudoeste 0 -- -- 82
2018-08-30 00:00:00 18.4 8 Este 28 Este 0 -- -- 80
2018-08-29 23:00:00 17.9 10 Este 18 Este 1 -- -- 85
2018-08-29 22:00:00 16.9 5 Noroeste 22 Noroeste 5 -- -- 89
2018-08-29 21:00:00 18.1 9 Nordeste 20 Nordeste 1 -- -- 89
2018-08-29 20:00:00 19 5 Sudeste 28 Sudoeste 3.2 -- -- 87
2018-08-29 19:00:00 22.3 11 Este 33 Nordeste 0 -- -- 67
2018-08-29 18:00:00 26.6 12 Este 25 Sudoeste 0 -- -- 59
2018-08-29 17:00:00 27.3 13 Sudoeste 28 Sur 0 -- -- 58
2018-08-29 16:00:00 29.6 13 Sudoeste 26 Sudoeste 0 -- -- 40
2018-08-29 15:00:00 29.6 14 Sudoeste 28 Sudoeste 0 -- -- 38
2018-08-29 14:00:00 28.5 4 Oeste 13 Sudoeste 0 -- -- 41
2018-08-29 13:00:00 27.3 6 Sudoeste 13 Sudoeste 0 -- -- 45
2018-08-29 12:00:00 26.4 4 Oeste 12 Sudoeste 0 -- -- 44
2018-08-29 11:00:00 24.5 4 Oeste 8 Sudoeste 0 -- -- 51
2018-08-29 10:00:00 23.4 3 Este 10 Este 0 -- -- 54
2018-08-29 09:00:00 20.4 7 Este 13 Nordeste 0 -- -- 60
2018-08-29 08:00:00 19 6 Este 12 Este 0 -- -- 65
2018-08-29 07:00:00 18.9 6 Este 11 Nordeste 0 -- -- 66
2018-08-29 06:00:00 19.5 9 Oeste 17 Sudoeste 0 -- -- 63
2018-08-29 05:00:00 21 5 Sudeste 20 Este 0 -- -- 56
2018-08-29 04:00:00 21 4 Este 13 Oeste 0 -- -- 56
2018-08-29 03:00:00 22.2 4 Nordeste 16 Sudoeste 0 -- -- 52
2018-08-29 02:00:00 23.4 4 Nordeste 14 Sudeste 0 -- -- 46
2018-08-29 01:00:00 24.8 14 Nordeste 42 Este 0 -- -- 40
2018-08-29 00:00:00 24.3 10 Este 34 Norte 0 -- -- 48
2018-08-28 23:00:00 23.2 8 Este 18 Este 0 -- -- 72
2018-08-28 22:00:00 23.6 7 Sudeste 31 Oeste 0 -- -- 71
2018-08-28 21:00:00 24.4 12 Nordeste 22 Este 0 -- -- 68
2018-08-28 20:00:00 24.9 3 Sudoeste 22 Sudoeste 0 -- -- 68
2018-08-28 19:00:00 25.7 13 Sudoeste 24 Sudoeste 0 -- -- 67
2018-08-28 18:00:00 28 14 Sudoeste 23 Sudoeste 0 -- -- 62
2018-08-28 17:00:00 30.3 13 Sudoeste 22 Sur 0 -- -- 51
2018-08-28 16:00:00 30.1 5 Norte 16 Sudoeste 0 -- -- 51
2018-08-28 15:00:00 29.1 9 Sudoeste 18 Sudoeste 0 -- -- 58
2018-08-28 14:00:00 27.9 8 Oeste 15 Sudoeste 0 -- -- 64
2018-08-28 13:00:00 26.7 8 Sudoeste 16 Sudoeste 0 -- -- 65
2018-08-28 12:00:00 25.5 5 Sur 15 Sudoeste 0 -- -- 69
2018-08-28 11:00:00 25.3 8 Sudoeste 13 Sudoeste 0 -- -- 70
2018-08-28 10:00:00 22.7 5 Este 10 Este 0 -- -- 73
2018-08-28 09:00:00 20.4 6 Sudoeste 12 Este 0 -- -- 82
2018-08-28 08:00:00 18.8 5 Este 10 Este 0 -- -- 84
2018-08-28 07:00:00 19.2 4 Nordeste 9 Nordeste 0 -- -- 83
2018-08-28 06:00:00 19.6 4 Este 12 Este 0 -- -- 83
2018-08-28 05:00:00 19.9 7 Este 12 Este 0 -- -- 87
2018-08-28 04:00:00 20.9 3 Este 7 Este 0 -- -- 85
2018-08-28 03:00:00 21.4 3 Sudeste 6 Este 0 -- -- 85
2018-08-28 02:00:00 21.7 3 Sur 6 Sudoeste 0 -- -- 87
2018-08-28 01:00:00 21.9 2 Sudoeste 7 Sudoeste 0 -- -- 87
2018-08-28 00:00:00 22 3 Sudoeste 8 Sudoeste 0 -- -- 86
2018-08-27 23:00:00 22.4 7 Sudoeste 9 Sudoeste 0 -- -- 84
2018-08-27 22:00:00 23 3 Sudoeste 10 Sudoeste 0 -- -- 81
2018-08-27 21:00:00 23.6 6 Sudoeste 14 Sudoeste 0 -- -- 78
2018-08-27 20:00:00 25.1 9 Sudoeste 18 Sudoeste 0 -- -- 70
2018-08-27 19:00:00 27.5 10 Sudoeste 23 Sudoeste 0 -- -- 59
2018-08-27 18:00:00 28.6 15 Oeste 24 Sudoeste 0 -- -- 42
2018-08-27 17:00:00 28.9 9 Sudoeste 25 Sudoeste 0 -- -- 46
2018-08-27 16:00:00 28 11 Sudoeste 20 Sudoeste 0 -- -- 50
2018-08-27 15:00:00 27.3 9 Sudoeste 24 Sudoeste 0 -- -- 51
2018-08-27 14:00:00 26 7 Sudoeste 17 Sur 0 -- -- 53
2018-08-27 13:00:00 25.2 8 Sudoeste 14 Oeste 0 -- -- 52
2018-08-27 12:00:00 23.9 6 Oeste 15 Sudoeste 0 -- -- 61
2018-08-27 11:00:00 23.1 5 Oeste 10 Sudoeste 0 -- -- 61
2018-08-27 10:00:00 20.7 2 Oeste 14 Este 0 -- -- 64
2018-08-27 09:00:00 16.8 10 Este 17 Este 0 -- -- 77
2018-08-27 08:00:00 15 7 Este 14 Este 0 -- -- 83
2018-08-27 07:00:00 15.2 8 Este 16 Nordeste 0 -- -- 81
2018-08-27 06:00:00 16.5 10 Este 20 Este 0 -- -- 78
2018-08-27 05:00:00 16 9 Este 18 Nordeste 0 -- -- 81
2018-08-27 04:00:00 15.8 6 Este 13 Nordeste 0 -- -- 83
2018-08-27 03:00:00 15.8 5 Este 11 Este 0 -- -- 82
2018-08-27 02:00:00 16.3 5 Este 10 Nordeste 0 -- -- 80
2018-08-27 01:00:00 16.7 6 Este 12 Este 0 -- -- 78
2018-08-27 00:00:00 17.3 5 Este 11 Este 0 -- -- 77
2018-08-26 23:00:00 17.9 4 Este 7 Este 0 -- -- 77
2018-08-26 22:00:00 19.4 2 Este 8 Este 0 -- -- 70
2018-08-26 21:00:00 20.7 3 Este 5 Este 0 -- -- 58
2018-08-26 20:00:00 22.6 3 Este 12 Sudoeste 0 -- -- 52
2018-08-26 19:00:00 23.9 4 Sur 22 Oeste 0 -- -- 49
2018-08-26 18:00:00 24.3 14 Sudoeste 29 Oeste 0 -- -- 48
2018-08-26 17:00:00 24.4 20 Sudoeste 31 Sudoeste 0 -- -- 46
2018-08-26 16:00:00 24.1 19 Oeste 35 Sudoeste 0 -- -- 48
2018-08-26 15:00:00 23.5 21 Sudoeste 31 Sudoeste 0 -- -- 49
2018-08-26 14:00:00 22.7 17 Sudoeste 28 Sudoeste 0 -- -- 53
2018-08-26 13:00:00 21.4 9 Sudoeste 19 Sudoeste 0 -- -- 55
2018-08-26 12:00:00 20 5 Sudoeste 13 Sudoeste 0 -- -- 57
2018-08-26 11:00:00 18.5 5 Sudoeste 12 Sudoeste 0 -- -- 64
2018-08-26 10:00:00 16.2 5 Sur 10 Sudoeste 0 -- -- 75
2018-08-26 09:00:00 14.5 5 Sudoeste 9 Este 0 -- -- 90
2018-08-26 08:00:00 13.3 5 Nordeste 10 Este 0 -- -- 90
2018-08-26 07:00:00 13.6 4 Este 12 Nordeste 0 -- -- 92
2018-08-26 06:00:00 14 3 Este 9 Sudeste 0 -- -- 87
2018-08-26 05:00:00 14.2 4 Sudeste 13 Sudoeste 0 -- -- 83
2018-08-26 04:00:00 15.4 6 Oeste 13 Sudoeste 0 -- -- 94
2018-08-26 03:00:00 16 8 Oeste 15 Sudoeste 0 -- -- 93
2018-08-26 02:00:00 16.4 6 Sudoeste 15 Sudoeste 0.2 -- -- 92
2018-08-26 01:00:00 17.1 5 Sudoeste 9 Sudoeste 0.6 -- -- 91
2018-08-26 00:00:00 17.4 7 Sudoeste 17 Sudoeste 0 -- -- 88
2018-08-25 23:00:00 18.1 8 Sudoeste 18 Sur 0 -- -- 86
2018-08-25 22:00:00 18.8 10 Sudoeste 25 Sudoeste 0 -- -- 83
2018-08-25 21:00:00 19.9 13 Sudoeste 28 Sudoeste 0 -- -- 77
2018-08-25 20:00:00 21.1 13 Sudoeste 23 Sudoeste 0 -- -- 60
2018-08-25 19:00:00 22.1 8 Sudoeste 13 Sudoeste 0 -- -- 58
2018-08-25 18:00:00 22.3 6 Sudoeste 15 Sudoeste 0 -- -- 55
2018-08-25 17:00:00 23 10 Sudoeste 23 Sudoeste 0 -- -- 51
2018-08-25 16:00:00 22.9 11 Sudoeste 20 Sudoeste 0 -- -- 49
2018-08-25 15:00:00 23.1 9 Sur 22 Sudoeste 0 -- -- 46
2018-08-25 14:00:00 22.5 14 Sudoeste 24 Sudoeste 0 -- -- 52
2018-08-25 13:00:00 22.3 14 Sudoeste 23 Sudoeste 0 -- -- 56
2018-08-25 12:00:00 20.9 11 Sudoeste 19 Sudoeste 0 -- -- 64
2018-08-25 11:00:00 19.5 4 Sur 12 Oeste 0 -- -- 64
2018-08-25 10:00:00 18.2 4 Oeste 10 Sudoeste 0 -- -- 71
2018-08-25 09:00:00 15.5 5 Sudoeste 8 Sur 0 -- -- 78
2018-08-25 08:00:00 14.7 3 Oeste 7 Sudoeste 0 -- -- 78
2018-08-25 07:00:00 16 4 Sur 9 Sudeste 0 -- -- 73
2018-08-25 06:00:00 17.1 2 Sur 5 Sudeste 0 -- -- 74
2018-08-25 05:00:00 17.1 3 Nordeste 6 Sudeste 0 -- -- 82
2018-08-25 04:00:00 17.8 4 Este 6 Nordeste 0 -- -- 85
2018-08-25 03:00:00 18.6 4 Sur 14 Sur 0 -- -- 91
2018-08-25 02:00:00 19.1 5 Sudoeste 13 Sudoeste 0 -- -- 91
2018-08-25 01:00:00 19.5 2 Oeste 5 Sudoeste 0 -- -- 89
2018-08-25 00:00:00 19.1 4 Este 5 Este 0 -- -- 89
2018-08-24 23:00:00 19.4 2 Este 6 Este 0 -- -- 88
2018-08-24 22:00:00 19.6 3 Este 11 Nordeste 0 -- -- 86
2018-08-24 21:00:00 19.7 4 Nordeste 10 Nordeste 2.6 -- -- 85
2018-08-24 20:00:00 21 6 Nordeste 14 Norte 6.2 -- -- 80
2018-08-24 19:00:00 23.6 3 Este 10 Noroeste 0 -- -- 66
2018-08-24 18:00:00 24.3 5 Oeste 15 Sudoeste 0 -- -- 64
2018-08-24 17:00:00 25.6 6 Sudoeste 17 Sudoeste 0 -- -- 57
2018-08-24 16:00:00 27.1 8 Sudoeste 21 Oeste 0 -- -- 55
2018-08-24 15:00:00 26.5 7 Sudoeste 17 Sudoeste 0 -- -- 57
2018-08-24 14:00:00 25.2 3 Sur 17 Sudoeste 0 -- -- 61
2018-08-24 13:00:00 24.4 8 Sudoeste 18 Sudoeste 0 -- -- 62
2018-08-24 12:00:00 22.9 9 Sudoeste 14 Sudoeste 0 -- -- 66
2018-08-24 11:00:00 21.3 8 Sudoeste 14 Sur 0 -- -- 68
2018-08-24 10:00:00 19.6 5 Sudoeste 10 Sudoeste 0 -- -- 74
2018-08-24 09:00:00 16.9 3 Este 10 Este 0 -- -- 82
2018-08-24 08:00:00 15.2 6 Este 13 Este 0 -- -- 85
2018-08-24 07:00:00 15.7 5 Nordeste 14 Este 0 -- -- 82
2018-08-24 06:00:00 16.2 8 Este 13 Este 0 -- -- 81
2018-08-24 05:00:00 16.9 8 Este 18 Nordeste 0 -- -- 79
2018-08-24 04:00:00 17.2 10 Este 21 Este 0 -- -- 78
2018-08-24 03:00:00 17 10 Este 19 Este 0 -- -- 81
2018-08-24 02:00:00 17.3 9 Este 16 Este 0 -- -- 80
2018-08-24 01:00:00 17.7 6 Este 13 Este 0 -- -- 80
2018-08-24 00:00:00 18.3 5 Este 13 Este 0 -- -- 79